AAL8101 TNCC-KMIA
Flight info
| Callsign | AAL8101 |
|---|---|
| Flight time | N/A |
| Altitude | 34000 |
| Route | KESVI UA315 JOSES Y586 MADIZ VIICE2 |
| Aircraft | A21N/M-SDE3FGHIRWY/LB1 |
Departure
| Time | 2026-04-17 14:48 |
|---|---|
| Airport | Hato International Airport (TNCC) |
Arrival
| Time | N/A |
|---|---|
| Airport | Miami International Airport (KMIA) |
| Time | Latitude | Longitude | Altitude | Speed | Heading |
|---|---|---|---|---|---|
| 2026-04-17 13:51 | 12.18545 | -68.95628 | 43 ft | 0 kts | 193° |
| 2026-04-17 14:40 | 12.18549 | -68.95628 | 43 ft | 2 kts | 193° |
| 2026-04-17 14:40 | 12.18564 | -68.95624 | 43 ft | 2 kts | 193° |
| 2026-04-17 14:40 | 12.18579 | -68.95621 | 43 ft | 2 kts | 193° |
| 2026-04-17 14:41 | 12.18594 | -68.95617 | 43 ft | 2 kts | 193° |
| 2026-04-17 14:41 | 12.18609 | -68.95614 | 43 ft | 2 kts | 206° |
| 2026-04-17 14:41 | 12.18619 | -68.95603 | 43 ft | 2 kts | 248° |
| 2026-04-17 14:41 | 12.18621 | -68.95590 | 43 ft | 0 kts | 278° |
| 2026-04-17 14:42 | 12.18620 | -68.95584 | 43 ft | 1 kts | 283° |
| 2026-04-17 14:42 | 12.18619 | -68.95583 | 43 ft | 0 kts | 282° |
| 2026-04-17 14:44 | 12.18632 | -68.95637 | 43 ft | 16 kts | 283° |
| 2026-04-17 14:44 | 12.18667 | -68.95809 | 43 ft | 32 kts | 282° |
| 2026-04-17 14:44 | 12.18726 | -68.96050 | 43 ft | 33 kts | 284° |
| 2026-04-17 14:45 | 12.18776 | -68.96273 | 43 ft | 31 kts | 282° |
| 2026-04-17 14:45 | 12.18820 | -68.96484 | 43 ft | 29 kts | 282° |
| 2026-04-17 14:45 | 12.18862 | -68.96686 | 43 ft | 30 kts | 282° |
| 2026-04-17 14:45 | 12.18911 | -68.96922 | 43 ft | 36 kts | 282° |
| 2026-04-17 14:46 | 12.18967 | -68.97185 | 42 ft | 37 kts | 282° |
| 2026-04-17 14:46 | 12.19019 | -68.97436 | 42 ft | 34 kts | 282° |
| 2026-04-17 14:46 | 12.19101 | -68.97639 | 41 ft | 27 kts | 347° |
| 2026-04-17 14:46 | 12.19131 | -68.97634 | 41 ft | 0 kts | 33° |
| 2026-04-17 14:47 | 12.19131 | -68.97633 | 41 ft | 0 kts | 34° |
| 2026-04-17 14:47 | 12.19201 | -68.97560 | 41 ft | 24 kts | 64° |
| 2026-04-17 14:47 | 12.19194 | -68.97401 | 41 ft | 22 kts | 103° |
| 2026-04-17 14:47 | 12.19125 | -68.97060 | 42 ft | 83 kts | 102° |
| 2026-04-17 14:48 | 12.18961 | -68.96275 | 43 ft | 142 kts | 103° |
| 2026-04-17 14:48 | 12.18714 | -68.95119 | 93 ft | 185 kts | 101° |
| 2026-04-17 14:48 | 12.18450 | -68.93825 | 724 ft | 185 kts | 101° |
| 2026-04-17 14:48 | 12.18190 | -68.92607 | 1598 ft | 175 kts | 102° |
| 2026-04-17 14:49 | 12.17932 | -68.91408 | 2200 ft | 178 kts | 102° |
| 2026-04-17 14:49 | 12.17654 | -68.90116 | 2579 ft | 194 kts | 102° |
| 2026-04-17 14:49 | 12.17601 | -68.88703 | 2894 ft | 215 kts | 77° |
| 2026-04-17 14:49 | 12.18387 | -68.87305 | 3210 ft | 242 kts | 46° |
| 2026-04-17 14:50 | 12.19951 | -68.86465 | 3676 ft | 266 kts | 19° |
| 2026-04-17 14:50 | 12.21740 | -68.85970 | 4419 ft | 269 kts | 20° |
| 2026-04-17 14:50 | 12.23531 | -68.85403 | 5190 ft | 272 kts | 21° |
| 2026-04-17 14:50 | 12.25345 | -68.84811 | 5922 ft | 275 kts | 21° |
| 2026-04-17 14:51 | 12.27157 | -68.84221 | 6638 ft | 278 kts | 20° |
| 2026-04-17 14:51 | 12.29005 | -68.83621 | 7383 ft | 281 kts | 19° |
| 2026-04-17 14:51 | 12.30872 | -68.83019 | 8103 ft | 283 kts | 19° |
| 2026-04-17 14:51 | 12.32763 | -68.82411 | 8794 ft | 285 kts | 19° |
| 2026-04-17 14:52 | 12.34658 | -68.81803 | 9463 ft | 287 kts | 18° |
| 2026-04-17 14:52 | 12.36584 | -68.81185 | 10108 ft | 290 kts | 18° |
| 2026-04-17 14:52 | 12.38550 | -68.80553 | 10522 ft | 302 kts | 18° |
| 2026-04-17 14:52 | 12.40607 | -68.79894 | 10808 ft | 317 kts | 17° |
| 2026-04-17 14:53 | 12.42771 | -68.79202 | 11076 ft | 333 kts | 17° |
| 2026-04-17 14:53 | 12.45025 | -68.78481 | 11349 ft | 347 kts | 17° |
| 2026-04-17 14:53 | 12.47359 | -68.77732 | 11832 ft | 355 kts | 17° |
| 2026-04-17 14:53 | 12.49726 | -68.76972 | 12428 ft | 358 kts | 16° |
| 2026-04-17 14:54 | 12.52103 | -68.76208 | 13017 ft | 361 kts | 16° |
| 2026-04-17 14:54 | 12.54515 | -68.75435 | 13581 ft | 364 kts | 15° |
| 2026-04-17 14:54 | 12.56941 | -68.74657 | 14117 ft | 367 kts | 15° |
| 2026-04-17 14:54 | 12.59417 | -68.73862 | 14646 ft | 371 kts | 15° |
| 2026-04-17 14:55 | 12.61898 | -68.73067 | 15157 ft | 374 kts | 15° |
| 2026-04-17 14:55 | 12.64433 | -68.72418 | 15625 ft | 375 kts | 3° |
| 2026-04-17 14:55 | 12.66998 | -68.72606 | 16081 ft | 373 kts | 343° |
| 2026-04-17 14:55 | 12.69387 | -68.73645 | 16564 ft | 372 kts | 328° |
| 2026-04-17 14:56 | 12.71631 | -68.74995 | 17024 ft | 375 kts | 327° |
| 2026-04-17 14:56 | 12.73882 | -68.76364 | 17460 ft | 379 kts | 327° |
| 2026-04-17 14:56 | 12.76165 | -68.77749 | 17887 ft | 382 kts | 327° |
| 2026-04-17 14:56 | 12.78472 | -68.79142 | 18314 ft | 386 kts | 327° |
| 2026-04-17 14:57 | 12.80773 | -68.80527 | 18751 ft | 388 kts | 327° |
| 2026-04-17 14:57 | 12.83134 | -68.81946 | 19191 ft | 391 kts | 327° |
| 2026-04-17 14:57 | 12.85462 | -68.83343 | 19618 ft | 393 kts | 326° |
| 2026-04-17 14:57 | 12.87851 | -68.84776 | 20036 ft | 396 kts | 326° |
| 2026-04-17 14:58 | 12.90217 | -68.86196 | 20466 ft | 398 kts | 326° |
| 2026-04-17 14:58 | 12.92631 | -68.87646 | 20893 ft | 400 kts | 326° |
| 2026-04-17 14:58 | 12.95026 | -68.89083 | 21296 ft | 402 kts | 326° |
| 2026-04-17 14:58 | 12.97440 | -68.90532 | 21679 ft | 405 kts | 326° |
| 2026-04-17 14:59 | 12.99880 | -68.91997 | 22064 ft | 407 kts | 326° |
| 2026-04-17 14:59 | 13.02363 | -68.93488 | 22443 ft | 410 kts | 326° |
| 2026-04-17 14:59 | 13.04824 | -68.94968 | 22812 ft | 413 kts | 326° |
| 2026-04-17 14:59 | 13.07290 | -68.96450 | 23196 ft | 415 kts | 325° |
| 2026-04-17 15:00 | 13.09789 | -68.97952 | 23552 ft | 417 kts | 325° |
| 2026-04-17 15:00 | 13.12303 | -68.99464 | 23908 ft | 420 kts | 326° |
| 2026-04-17 15:00 | 13.14835 | -69.00986 | 24262 ft | 422 kts | 326° |
| 2026-04-17 15:00 | 13.17385 | -69.02518 | 24614 ft | 424 kts | 325° |
| 2026-04-17 15:01 | 13.19947 | -69.04058 | 24945 ft | 426 kts | 325° |
| 2026-04-17 15:01 | 13.22489 | -69.05588 | 25254 ft | 429 kts | 325° |
| 2026-04-17 15:01 | 13.25099 | -69.07158 | 25582 ft | 431 kts | 325° |
| 2026-04-17 15:01 | 13.27666 | -69.08702 | 25897 ft | 432 kts | 325° |
| 2026-04-17 15:02 | 13.30271 | -69.10271 | 26222 ft | 434 kts | 325° |
| 2026-04-17 15:02 | 13.32902 | -69.11855 | 26527 ft | 436 kts | 325° |
| 2026-04-17 15:02 | 13.35513 | -69.13427 | 26823 ft | 437 kts | 325° |
| 2026-04-17 15:02 | 13.38136 | -69.15008 | 27080 ft | 440 kts | 324° |
| 2026-04-17 15:03 | 13.40774 | -69.16597 | 27342 ft | 442 kts | 324° |
| 2026-04-17 15:03 | 13.43458 | -69.18216 | 27622 ft | 444 kts | 324° |
| 2026-04-17 15:03 | 13.46127 | -69.19826 | 27889 ft | 446 kts | 324° |
| 2026-04-17 15:03 | 13.48787 | -69.21429 | 28144 ft | 447 kts | 324° |
| 2026-04-17 15:04 | 13.51468 | -69.23047 | 28392 ft | 449 kts | 324° |
| 2026-04-17 15:04 | 13.54174 | -69.24679 | 28679 ft | 450 kts | 324° |
| 2026-04-17 15:04 | 13.56883 | -69.26313 | 29034 ft | 449 kts | 324° |
| 2026-04-17 15:04 | 13.59561 | -69.27930 | 29412 ft | 447 kts | 324° |
| 2026-04-17 15:05 | 13.62270 | -69.29565 | 29747 ft | 447 kts | 324° |
| 2026-04-17 15:05 | 13.64941 | -69.31177 | 30059 ft | 447 kts | 324° |
| 2026-04-17 15:05 | 13.67599 | -69.32783 | 30386 ft | 446 kts | 324° |
| 2026-04-17 15:05 | 13.70292 | -69.34409 | 30710 ft | 445 kts | 324° |
| 2026-04-17 15:06 | 13.72940 | -69.36012 | 30998 ft | 445 kts | 324° |
| 2026-04-17 15:06 | 13.75641 | -69.37646 | 31258 ft | 445 kts | 324° |
| 2026-04-17 15:06 | 13.78307 | -69.39260 | 31520 ft | 445 kts | 324° |
| 2026-04-17 15:06 | 13.80957 | -69.40865 | 31797 ft | 445 kts | 324° |
| 2026-04-17 15:07 | 13.83638 | -69.42488 | 32079 ft | 444 kts | 324° |
| 2026-04-17 15:07 | 13.86296 | -69.44096 | 32330 ft | 444 kts | 324° |
| 2026-04-17 15:07 | 13.88957 | -69.45710 | 32505 ft | 445 kts | 324° |
| 2026-04-17 15:07 | 13.91639 | -69.47336 | 32663 ft | 447 kts | 324° |
| 2026-04-17 15:08 | 13.94324 | -69.48962 | 32840 ft | 448 kts | 324° |
| 2026-04-17 15:08 | 13.97012 | -69.50591 | 32995 ft | 450 kts | 324° |
| 2026-04-17 15:08 | 13.99729 | -69.52239 | 33158 ft | 451 kts | 324° |
| 2026-04-17 15:08 | 14.02441 | -69.53884 | 33367 ft | 451 kts | 324° |
| 2026-04-17 15:09 | 14.05127 | -69.55513 | 33574 ft | 451 kts | 324° |
| 2026-04-17 15:09 | 14.07841 | -69.57159 | 33761 ft | 452 kts | 325° |
| 2026-04-17 15:09 | 14.10542 | -69.58797 | 33928 ft | 452 kts | 325° |
| 2026-04-17 15:09 | 14.13261 | -69.60446 | 33930 ft | 452 kts | 325° |
| 2026-04-17 15:10 | 14.18675 | -69.63734 | 33938 ft | 451 kts | 325° |
| 2026-04-17 15:11 | 14.26804 | -69.68677 | 33941 ft | 452 kts | 325° |
| 2026-04-17 15:11 | 14.32211 | -69.71963 | 33942 ft | 451 kts | 325° |
| 2026-04-17 15:12 | 14.37637 | -69.75266 | 33943 ft | 451 kts | 325° |
| 2026-04-17 15:12 | 14.43033 | -69.78552 | 33944 ft | 452 kts | 326° |
| 2026-04-17 15:13 | 14.48443 | -69.81846 | 33947 ft | 451 kts | 326° |
| 2026-04-17 15:13 | 14.53862 | -69.85149 | 33943 ft | 451 kts | 326° |
| 2026-04-17 15:14 | 14.59281 | -69.88455 | 33946 ft | 451 kts | 326° |
| 2026-04-17 15:14 | 14.64682 | -69.91753 | 33946 ft | 451 kts | 326° |
| 2026-04-17 15:15 | 14.70083 | -69.95051 | 33948 ft | 451 kts | 326° |
| 2026-04-17 15:15 | 14.75476 | -69.98345 | 33953 ft | 451 kts | 326° |
| 2026-04-17 15:16 | 14.80845 | -70.01628 | 33952 ft | 450 kts | 326° |
| 2026-04-17 15:16 | 14.86222 | -70.04917 | 33951 ft | 448 kts | 326° |
| 2026-04-17 15:17 | 14.91610 | -70.08214 | 33954 ft | 449 kts | 326° |
| 2026-04-17 15:17 | 14.96997 | -70.11513 | 33956 ft | 449 kts | 326° |
| 2026-04-17 15:18 | 15.02365 | -70.14803 | 33956 ft | 448 kts | 327° |
| 2026-04-17 15:18 | 15.07718 | -70.18085 | 33952 ft | 447 kts | 327° |
| 2026-04-17 15:19 | 15.13059 | -70.21365 | 33945 ft | 447 kts | 327° |
| 2026-04-17 15:19 | 15.18412 | -70.24648 | 33941 ft | 446 kts | 327° |
| 2026-04-17 15:20 | 15.23776 | -70.27942 | 33938 ft | 445 kts | 327° |
| 2026-04-17 15:20 | 15.29109 | -70.31219 | 33937 ft | 445 kts | 327° |
| 2026-04-17 15:21 | 15.34423 | -70.34488 | 33940 ft | 444 kts | 327° |
| 2026-04-17 15:21 | 15.39753 | -70.37767 | 33939 ft | 444 kts | 327° |
| 2026-04-17 15:22 | 15.45041 | -70.41025 | 33940 ft | 444 kts | 327° |
| 2026-04-17 15:22 | 15.50369 | -70.44307 | 33940 ft | 443 kts | 328° |
| 2026-04-17 15:23 | 15.55645 | -70.47560 | 33943 ft | 443 kts | 328° |
| 2026-04-17 15:23 | 15.60957 | -70.50838 | 33947 ft | 442 kts | 328° |
| 2026-04-17 15:24 | 15.66233 | -70.54094 | 33949 ft | 441 kts | 328° |
| 2026-04-17 15:24 | 15.71527 | -70.57364 | 33951 ft | 441 kts | 328° |
| 2026-04-17 15:25 | 15.76811 | -70.60629 | 33948 ft | 441 kts | 328° |
| 2026-04-17 15:25 | 15.82061 | -70.63878 | 33949 ft | 440 kts | 328° |
| 2026-04-17 15:26 | 15.87349 | -70.67152 | 33950 ft | 441 kts | 328° |
| 2026-04-17 15:26 | 15.92609 | -70.70413 | 33951 ft | 440 kts | 328° |
| 2026-04-17 15:27 | 15.97853 | -70.73666 | 33953 ft | 439 kts | 328° |
| 2026-04-17 15:27 | 16.03122 | -70.76918 | 33954 ft | 439 kts | 329° |
| 2026-04-17 15:28 | 16.08356 | -70.80133 | 33953 ft | 439 kts | 329° |
| 2026-04-17 15:28 | 16.13624 | -70.83375 | 33956 ft | 438 kts | 329° |
| 2026-04-17 15:29 | 16.18881 | -70.86616 | 33956 ft | 438 kts | 329° |
| 2026-04-17 15:29 | 16.24119 | -70.89851 | 33955 ft | 436 kts | 329° |
| 2026-04-17 15:30 | 16.29350 | -70.93082 | 33957 ft | 437 kts | 329° |
| 2026-04-17 15:30 | 16.34564 | -70.96304 | 33955 ft | 437 kts | 329° |
| 2026-04-17 15:31 | 16.39789 | -70.99537 | 33958 ft | 437 kts | 330° |
| 2026-04-17 15:31 | 16.45028 | -71.02780 | 33955 ft | 436 kts | 330° |
| 2026-04-17 15:32 | 16.50237 | -71.06006 | 33959 ft | 435 kts | 330° |
| 2026-04-17 15:32 | 16.55460 | -71.09242 | 33956 ft | 436 kts | 330° |
| 2026-04-17 15:33 | 16.60658 | -71.12466 | 33953 ft | 435 kts | 330° |
| 2026-04-17 15:33 | 16.65887 | -71.15709 | 33957 ft | 436 kts | 330° |
| 2026-04-17 15:34 | 16.71088 | -71.18940 | 33955 ft | 435 kts | 330° |
| 2026-04-17 15:34 | 16.76279 | -71.22166 | 33957 ft | 435 kts | 330° |
| 2026-04-17 15:35 | 16.81487 | -71.25404 | 33956 ft | 434 kts | 330° |
| 2026-04-17 15:35 | 16.86675 | -71.28632 | 33954 ft | 434 kts | 330° |
| 2026-04-17 15:36 | 16.91851 | -71.31855 | 33952 ft | 434 kts | 330° |
| 2026-04-17 15:36 | 16.97043 | -71.35090 | 33956 ft | 434 kts | 330° |
| 2026-04-17 15:37 | 17.02251 | -71.38339 | 33961 ft | 434 kts | 331° |
| 2026-04-17 15:37 | 17.07430 | -71.41573 | 33964 ft | 433 kts | 331° |
| 2026-04-17 15:38 | 17.12616 | -71.44813 | 33967 ft | 433 kts | 331° |
| 2026-04-17 15:38 | 17.17811 | -71.48060 | 33968 ft | 433 kts | 331° |
| 2026-04-17 15:39 | 17.22969 | -71.51276 | 33967 ft | 433 kts | 331° |
| 2026-04-17 15:39 | 17.28133 | -71.54497 | 33968 ft | 433 kts | 331° |
| 2026-04-17 15:40 | 17.33308 | -71.57735 | 33966 ft | 432 kts | 331° |
| 2026-04-17 15:40 | 17.38481 | -71.60975 | 33969 ft | 432 kts | 331° |
| 2026-04-17 15:41 | 17.43630 | -71.64201 | 33972 ft | 432 kts | 331° |
| 2026-04-17 15:41 | 17.48792 | -71.67442 | 33976 ft | 432 kts | 331° |
| 2026-04-17 15:42 | 17.53960 | -71.70688 | 33975 ft | 432 kts | 331° |
| 2026-04-17 15:42 | 17.59118 | -71.73916 | 33975 ft | 431 kts | 332° |
| 2026-04-17 15:43 | 17.64269 | -71.77138 | 33975 ft | 431 kts | 331° |
| 2026-04-17 15:43 | 17.69389 | -71.80349 | 33976 ft | 431 kts | 332° |
| 2026-04-17 15:44 | 17.74553 | -71.83590 | 33976 ft | 431 kts | 331° |
| 2026-04-17 15:44 | 17.79708 | -71.86832 | 33975 ft | 431 kts | 332° |
| 2026-04-17 15:45 | 17.84840 | -71.90063 | 33977 ft | 431 kts | 332° |
| 2026-04-17 15:45 | 17.90003 | -71.93314 | 33972 ft | 431 kts | 332° |
| 2026-04-17 15:46 | 17.95171 | -71.96485 | 33964 ft | 431 kts | 334° |
| 2026-04-17 15:46 | 18.00435 | -71.99515 | 33957 ft | 430 kts | 334° |
| 2026-04-17 15:47 | 18.05698 | -72.02552 | 33960 ft | 430 kts | 334° |
| 2026-04-17 15:47 | 18.10912 | -72.05582 | 33970 ft | 429 kts | 334° |
| 2026-04-17 15:48 | 18.16140 | -72.08628 | 33980 ft | 429 kts | 334° |
| 2026-04-17 15:48 | 18.21363 | -72.11678 | 33991 ft | 429 kts | 333° |
| 2026-04-17 15:49 | 18.26583 | -72.14685 | 34001 ft | 427 kts | 335° |
| 2026-04-17 15:49 | 18.31945 | -72.17419 | 34011 ft | 426 kts | 337° |
| 2026-04-17 15:50 | 18.37273 | -72.20105 | 34013 ft | 425 kts | 337° |
| 2026-04-17 15:50 | 18.42631 | -72.22813 | 34018 ft | 425 kts | 337° |
| 2026-04-17 15:51 | 18.47938 | -72.25497 | 34023 ft | 425 kts | 337° |
| 2026-04-17 15:51 | 18.53286 | -72.28207 | 34024 ft | 425 kts | 337° |
| 2026-04-17 15:52 | 18.58596 | -72.30966 | 34029 ft | 425 kts | 334° |
| 2026-04-17 15:52 | 18.63808 | -72.33954 | 34028 ft | 425 kts | 334° |
| 2026-04-17 15:53 | 18.69006 | -72.36958 | 34018 ft | 425 kts | 334° |
| 2026-04-17 15:53 | 18.74183 | -72.39954 | 34009 ft | 425 kts | 334° |
| 2026-04-17 15:54 | 18.79352 | -72.42946 | 34003 ft | 424 kts | 334° |
| 2026-04-17 15:54 | 18.84523 | -72.45940 | 34005 ft | 423 kts | 334° |
| 2026-04-17 15:55 | 18.89710 | -72.48949 | 34013 ft | 423 kts | 334° |
| 2026-04-17 15:55 | 18.94847 | -72.51931 | 34018 ft | 423 kts | 334° |
| 2026-04-17 15:56 | 19.00029 | -72.54944 | 34024 ft | 423 kts | 334° |
| 2026-04-17 15:56 | 19.05177 | -72.57938 | 34015 ft | 423 kts | 334° |
| 2026-04-17 15:57 | 19.10347 | -72.60950 | 34004 ft | 423 kts | 334° |
| 2026-04-17 15:57 | 19.15462 | -72.63990 | 33983 ft | 423 kts | 333° |
| 2026-04-17 15:58 | 19.20602 | -72.67059 | 33972 ft | 422 kts | 333° |
| 2026-04-17 15:58 | 19.25738 | -72.70129 | 33966 ft | 423 kts | 333° |
| 2026-04-17 15:59 | 19.30868 | -72.73196 | 33968 ft | 424 kts | 333° |
| 2026-04-17 15:59 | 19.36015 | -72.76276 | 33981 ft | 424 kts | 333° |
| 2026-04-17 16:00 | 19.41130 | -72.79339 | 33986 ft | 424 kts | 333° |
| 2026-04-17 16:00 | 19.46275 | -72.82421 | 33997 ft | 423 kts | 333° |
| 2026-04-17 16:01 | 19.51390 | -72.85490 | 33998 ft | 422 kts | 333° |
| 2026-04-17 16:01 | 19.56519 | -72.88567 | 33992 ft | 422 kts | 333° |
| 2026-04-17 16:02 | 19.61637 | -72.91642 | 33988 ft | 423 kts | 333° |
| 2026-04-17 16:02 | 19.66769 | -72.94730 | 33985 ft | 424 kts | 333° |
| 2026-04-17 16:03 | 19.71888 | -72.97813 | 33986 ft | 424 kts | 333° |
| 2026-04-17 16:03 | 19.77025 | -73.00907 | 33990 ft | 424 kts | 333° |
| 2026-04-17 16:04 | 19.83085 | -73.04340 | 33990 ft | 423 kts | 334° |
| 2026-04-17 16:04 | 19.87427 | -73.06764 | 33985 ft | 423 kts | 334° |
| 2026-04-17 16:05 | 19.92625 | -73.09672 | 33980 ft | 423 kts | 334° |
| 2026-04-17 16:05 | 19.97840 | -73.12567 | 33976 ft | 423 kts | 334° |
| 2026-04-17 16:06 | 20.03076 | -73.15482 | 33975 ft | 422 kts | 334° |
| 2026-04-17 16:06 | 20.08273 | -73.18381 | 33977 ft | 422 kts | 334° |
| 2026-04-17 16:07 | 20.13362 | -73.21537 | 33978 ft | 424 kts | 329° |
| 2026-04-17 16:07 | 20.18899 | -73.25909 | 33976 ft | 426 kts | 323° |
| 2026-04-17 16:08 | 20.22652 | -73.29330 | 33976 ft | 426 kts | 322° |
| 2026-04-17 16:08 | 20.27128 | -73.33446 | 33976 ft | 426 kts | 322° |
| 2026-04-17 16:09 | 20.32375 | -73.38278 | 33975 ft | 427 kts | 322° |
| 2026-04-17 16:09 | 20.36104 | -73.41713 | 33975 ft | 426 kts | 322° |
| 2026-04-17 16:10 | 20.40573 | -73.45834 | 33976 ft | 426 kts | 322° |
| 2026-04-17 16:10 | 20.45823 | -73.50678 | 33975 ft | 425 kts | 322° |
| 2026-04-17 16:11 | 20.50272 | -73.54787 | 33974 ft | 425 kts | 321° |
| 2026-04-17 16:11 | 20.54746 | -73.58922 | 33976 ft | 425 kts | 322° |
| 2026-04-17 16:12 | 20.59194 | -73.63036 | 33977 ft | 425 kts | 322° |
| 2026-04-17 16:12 | 20.63665 | -73.67175 | 33978 ft | 425 kts | 321° |
| 2026-04-17 16:13 | 20.68130 | -73.71310 | 33979 ft | 425 kts | 321° |
| 2026-04-17 16:13 | 20.71845 | -73.74754 | 33978 ft | 425 kts | 321° |
| 2026-04-17 16:14 | 20.78525 | -73.80953 | 33977 ft | 424 kts | 321° |
| 2026-04-17 16:14 | 20.82989 | -73.85101 | 33977 ft | 423 kts | 321° |
| 2026-04-17 16:15 | 20.87404 | -73.89208 | 33977 ft | 423 kts | 321° |
| 2026-04-17 16:15 | 20.91859 | -73.93350 | 33976 ft | 424 kts | 321° |
| 2026-04-17 16:16 | 20.97028 | -73.98163 | 33976 ft | 424 kts | 321° |
| 2026-04-17 16:16 | 21.01480 | -74.02316 | 33978 ft | 424 kts | 321° |
| 2026-04-17 16:17 | 21.05921 | -74.06460 | 33974 ft | 424 kts | 321° |
| 2026-04-17 16:17 | 21.10394 | -74.10632 | 33978 ft | 424 kts | 321° |
| 2026-04-17 16:18 | 21.14846 | -74.14792 | 33980 ft | 424 kts | 321° |
| 2026-04-17 16:18 | 21.19271 | -74.18932 | 33979 ft | 424 kts | 320° |
| 2026-04-17 16:19 | 21.23720 | -74.23099 | 33980 ft | 424 kts | 321° |
| 2026-04-17 16:19 | 21.27407 | -74.26556 | 33983 ft | 424 kts | 320° |
| 2026-04-17 16:20 | 21.31847 | -74.30719 | 33985 ft | 423 kts | 321° |
| 2026-04-17 16:20 | 21.36275 | -74.34873 | 33991 ft | 423 kts | 320° |
| 2026-04-17 16:21 | 21.40718 | -74.39045 | 33995 ft | 424 kts | 320° |
| 2026-04-17 16:21 | 21.45872 | -74.43890 | 33998 ft | 424 kts | 320° |
| 2026-04-17 16:22 | 21.50312 | -74.48069 | 33994 ft | 424 kts | 321° |
| 2026-04-17 16:22 | 21.54739 | -74.52235 | 33992 ft | 424 kts | 320° |
| 2026-04-17 16:23 | 21.59178 | -74.56419 | 33995 ft | 424 kts | 320° |
| 2026-04-17 16:23 | 21.62865 | -74.59896 | 33995 ft | 424 kts | 320° |
| 2026-04-17 16:24 | 21.67291 | -74.64074 | 33995 ft | 424 kts | 320° |
| 2026-04-17 16:24 | 21.72458 | -74.68956 | 33995 ft | 424 kts | 320° |
| 2026-04-17 16:25 | 21.76877 | -74.73134 | 33995 ft | 424 kts | 320° |
| 2026-04-17 16:25 | 21.81312 | -74.77332 | 33994 ft | 424 kts | 320° |
| 2026-04-17 16:26 | 21.85738 | -74.81525 | 33993 ft | 423 kts | 320° |
| 2026-04-17 16:26 | 21.90133 | -74.85693 | 33992 ft | 423 kts | 320° |
| 2026-04-17 16:27 | 21.94562 | -74.89899 | 33993 ft | 423 kts | 320° |
| 2026-04-17 16:27 | 21.98242 | -74.93398 | 33994 ft | 423 kts | 320° |
| 2026-04-17 16:28 | 22.02636 | -74.97579 | 33994 ft | 423 kts | 320° |
| 2026-04-17 16:28 | 22.07770 | -75.02466 | 33996 ft | 423 kts | 320° |
| 2026-04-17 16:29 | 22.12005 | -75.06908 | 33997 ft | 425 kts | 314° |
| 2026-04-17 16:29 | 22.15882 | -75.11716 | 33997 ft | 425 kts | 312° |
| 2026-04-17 16:30 | 22.19712 | -75.16585 | 33997 ft | 425 kts | 312° |
| 2026-04-17 16:30 | 22.23520 | -75.21438 | 34000 ft | 424 kts | 312° |
| 2026-04-17 16:31 | 22.26688 | -75.25478 | 33999 ft | 424 kts | 312° |
| 2026-04-17 16:31 | 22.31134 | -75.31151 | 34001 ft | 425 kts | 312° |
| 2026-04-17 16:32 | 22.34939 | -75.36011 | 34003 ft | 425 kts | 312° |
| 2026-04-17 16:32 | 22.38752 | -75.40884 | 34002 ft | 425 kts | 312° |
| 2026-04-17 16:33 | 22.41919 | -75.44933 | 34003 ft | 425 kts | 312° |
| 2026-04-17 16:33 | 22.46354 | -75.50613 | 34004 ft | 425 kts | 312° |
| 2026-04-17 16:34 | 22.50155 | -75.55486 | 34007 ft | 424 kts | 312° |
| 2026-04-17 16:34 | 22.53974 | -75.60385 | 34006 ft | 424 kts | 312° |
| 2026-04-17 16:35 | 22.57127 | -75.64436 | 34007 ft | 424 kts | 312° |
| 2026-04-17 16:35 | 22.60925 | -75.69318 | 34009 ft | 425 kts | 311° |
| 2026-04-17 16:36 | 22.65360 | -75.75024 | 34008 ft | 424 kts | 311° |
| 2026-04-17 16:36 | 22.69165 | -75.79926 | 34008 ft | 425 kts | 311° |
| 2026-04-17 16:37 | 22.72332 | -75.84009 | 34010 ft | 425 kts | 311° |
| 2026-04-17 16:37 | 22.76122 | -75.88900 | 34011 ft | 424 kts | 311° |
| 2026-04-17 16:38 | 22.80522 | -75.94583 | 34011 ft | 424 kts | 311° |
| 2026-04-17 16:38 | 22.84298 | -75.99465 | 34012 ft | 424 kts | 311° |
| 2026-04-17 16:39 | 22.87460 | -76.03558 | 34012 ft | 424 kts | 311° |
| 2026-04-17 16:39 | 22.91873 | -76.09273 | 34012 ft | 424 kts | 311° |
| 2026-04-17 16:40 | 22.95659 | -76.14182 | 34011 ft | 425 kts | 311° |
| 2026-04-17 16:40 | 22.99441 | -76.19093 | 34008 ft | 424 kts | 311° |
| 2026-04-17 16:41 | 23.02582 | -76.23175 | 34012 ft | 423 kts | 311° |
| 2026-04-17 16:41 | 23.06968 | -76.28879 | 34015 ft | 422 kts | 311° |
| 2026-04-17 16:42 | 23.10715 | -76.33755 | 34016 ft | 422 kts | 311° |
| 2026-04-17 16:42 | 23.14455 | -76.38628 | 34018 ft | 422 kts | 311° |
| 2026-04-17 16:43 | 23.18213 | -76.43531 | 34018 ft | 422 kts | 311° |
| 2026-04-17 16:43 | 23.21966 | -76.48431 | 34021 ft | 422 kts | 311° |
| 2026-04-17 16:44 | 23.25098 | -76.52525 | 34021 ft | 421 kts | 311° |
| 2026-04-17 16:44 | 23.29444 | -76.58210 | 34022 ft | 421 kts | 311° |
| 2026-04-17 16:45 | 23.33174 | -76.63096 | 34022 ft | 420 kts | 311° |
| 2026-04-17 16:45 | 23.36890 | -76.67968 | 34026 ft | 419 kts | 310° |
| 2026-04-17 16:46 | 23.40605 | -76.72847 | 34024 ft | 418 kts | 310° |
| 2026-04-17 16:46 | 23.44328 | -76.77741 | 34023 ft | 418 kts | 310° |
| 2026-04-17 16:47 | 23.48039 | -76.82626 | 34026 ft | 418 kts | 310° |
| 2026-04-17 16:47 | 23.51735 | -76.87489 | 34027 ft | 419 kts | 310° |
| 2026-04-17 16:48 | 23.55460 | -76.92367 | 34028 ft | 419 kts | 311° |
| 2026-04-17 16:48 | 23.59170 | -76.97237 | 34027 ft | 419 kts | 310° |
| 2026-04-17 16:49 | 23.62887 | -77.02126 | 34030 ft | 418 kts | 310° |
| 2026-04-17 16:49 | 23.66592 | -77.07008 | 34031 ft | 419 kts | 310° |
| 2026-04-17 16:50 | 23.70304 | -77.11904 | 34030 ft | 418 kts | 310° |
| 2026-04-17 16:50 | 23.73982 | -77.16761 | 34028 ft | 418 kts | 310° |
| 2026-04-17 16:51 | 23.77679 | -77.21648 | 34028 ft | 417 kts | 310° |
| 2026-04-17 16:51 | 23.81387 | -77.26556 | 34025 ft | 418 kts | 310° |
| 2026-04-17 16:52 | 23.85064 | -77.31428 | 34026 ft | 418 kts | 310° |
| 2026-04-17 16:52 | 23.88762 | -77.36330 | 34030 ft | 417 kts | 310° |
| 2026-04-17 16:53 | 23.91834 | -77.40408 | 34028 ft | 417 kts | 310° |
| 2026-04-17 16:53 | 23.96124 | -77.46107 | 34022 ft | 417 kts | 310° |
| 2026-04-17 16:54 | 23.99816 | -77.51017 | 34024 ft | 417 kts | 310° |
| 2026-04-17 16:54 | 24.03488 | -77.55907 | 34024 ft | 417 kts | 310° |
| 2026-04-17 16:55 | 24.07159 | -77.60800 | 34026 ft | 417 kts | 310° |
| 2026-04-17 16:55 | 24.10835 | -77.65709 | 34022 ft | 416 kts | 310° |
| 2026-04-17 16:56 | 24.14504 | -77.70609 | 34024 ft | 416 kts | 310° |
| 2026-04-17 16:56 | 24.18164 | -77.75507 | 34024 ft | 417 kts | 310° |
| 2026-04-17 16:57 | 24.21819 | -77.80405 | 34021 ft | 417 kts | 310° |
| 2026-04-17 16:57 | 24.25500 | -77.85338 | 34026 ft | 416 kts | 309° |
| 2026-04-17 16:58 | 24.28911 | -77.90442 | 34023 ft | 417 kts | 305° |
| 2026-04-17 16:58 | 24.32148 | -77.95681 | 34028 ft | 417 kts | 305° |
| 2026-04-17 16:59 | 24.35373 | -78.00925 | 34032 ft | 416 kts | 305° |
| 2026-04-17 16:59 | 24.38603 | -78.06182 | 34028 ft | 416 kts | 305° |
| 2026-04-17 17:00 | 24.41842 | -78.11461 | 34032 ft | 417 kts | 305° |
| 2026-04-17 17:00 | 24.45071 | -78.16734 | 34034 ft | 416 kts | 305° |
| 2026-04-17 17:01 | 24.48274 | -78.21966 | 34038 ft | 416 kts | 305° |
| 2026-04-17 17:01 | 24.51507 | -78.27251 | 34040 ft | 416 kts | 305° |
| 2026-04-17 17:02 | 24.54720 | -78.32512 | 34043 ft | 416 kts | 304° |
| 2026-04-17 17:02 | 24.57406 | -78.36917 | 34041 ft | 416 kts | 305° |
| 2026-04-17 17:03 | 24.61141 | -78.43047 | 34045 ft | 416 kts | 305° |
| 2026-04-17 17:03 | 24.64353 | -78.48324 | 34048 ft | 416 kts | 305° |
| 2026-04-17 17:04 | 24.67019 | -78.52711 | 34050 ft | 415 kts | 305° |
| 2026-04-17 17:04 | 24.70230 | -78.57999 | 34043 ft | 416 kts | 304° |
| 2026-04-17 17:05 | 24.73968 | -78.64168 | 34048 ft | 415 kts | 304° |
| 2026-04-17 17:05 | 24.77160 | -78.69441 | 34054 ft | 415 kts | 304° |
| 2026-04-17 17:06 | 24.80346 | -78.74696 | 34056 ft | 414 kts | 304° |
| 2026-04-17 17:06 | 24.81964 | -78.77362 | 33814 ft | 415 kts | 304° |
| 2026-04-17 17:06 | 24.83546 | -78.79973 | 33509 ft | 413 kts | 304° |
| 2026-04-17 17:07 | 24.85136 | -78.82599 | 33057 ft | 410 kts | 304° |
| 2026-04-17 17:07 | 24.86694 | -78.85178 | 32482 ft | 409 kts | 304° |
| 2026-04-17 17:07 | 24.88276 | -78.87800 | 31796 ft | 410 kts | 304° |
| 2026-04-17 17:07 | 24.89843 | -78.90398 | 31106 ft | 411 kts | 304° |
| 2026-04-17 17:08 | 24.91436 | -78.93043 | 30381 ft | 412 kts | 304° |
| 2026-04-17 17:08 | 24.93004 | -78.95644 | 29644 ft | 414 kts | 304° |
| 2026-04-17 17:08 | 24.94601 | -78.98299 | 28895 ft | 416 kts | 304° |
| 2026-04-17 17:08 | 24.96194 | -79.00950 | 28291 ft | 414 kts | 304° |
| 2026-04-17 17:09 | 24.97754 | -79.03548 | 27806 ft | 410 kts | 304° |
| 2026-04-17 17:09 | 24.99330 | -79.06174 | 27296 ft | 406 kts | 304° |
| 2026-04-17 17:09 | 25.00867 | -79.08733 | 26799 ft | 403 kts | 304° |
| 2026-04-17 17:09 | 25.02421 | -79.11324 | 26291 ft | 400 kts | 304° |
| 2026-04-17 17:10 | 25.03933 | -79.13837 | 25795 ft | 398 kts | 304° |
| 2026-04-17 17:10 | 25.04959 | -79.15542 | 25460 ft | 396 kts | 304° |
| 2026-04-17 17:10 | 25.06981 | -79.18904 | 24790 ft | 393 kts | 304° |
| 2026-04-17 17:10 | 25.08477 | -79.21398 | 24291 ft | 391 kts | 304° |
| 2026-04-17 17:11 | 25.09962 | -79.23876 | 23801 ft | 390 kts | 304° |
| 2026-04-17 17:11 | 25.11464 | -79.26387 | 23306 ft | 388 kts | 304° |
| 2026-04-17 17:11 | 25.12945 | -79.28865 | 22815 ft | 387 kts | 304° |
| 2026-04-17 17:11 | 25.14404 | -79.31308 | 22338 ft | 386 kts | 304° |